»·PEaware :: UAL717 KBOI-KMFR

UAL717 :: KBOI-KMFR

FLIGHT INFORMATION

Flight Status: Arrived
Operator:
United Airlines
More flights by this operator :: More flights under this callsign
Pilot: Ty S. (2873)
Aircraft: AIRBUS A320
(A320)
More flights by this aircraft type
Origin: KBOI Boise Air Terminal/Gowen
United States
Destination: KMFR Rogue Valley Intl-Medford
United States
More flights between these airports :: More routes between these airports
Route: +BOI3 SAILL BUEEL ACLOB
File this flight plan on PilotEdge
Remarks: PBN / A1B1C1D1O1S1 DOF / 180224 REG / N320SB EET / KZSE0024 OPR / UAL PER / C TALT / KPIH RMK / TCAS SIMBRIEF
Altitude:
(Current/Filed)
36,000ft
Speed:
(Current/Filed)
440kts
Departed: 24-Feb-18 12:19 PM
Arrived: 24-Feb-18 01:22 PM
Distance/Time
Traveled:
301nm/1:03
Distance/Time
To Go:
Arrived

Flight Plot

Page will automatically refresh every two minutes.

Flight plan parsing failed; only flown route is shown


Map Options




Map Legend


Flown Route
Filed Route
Departure Airport
Arrival Airport
Navaid (VOR, NDB)
Fix

Horizontal Profiles

Position Reports

Time Latitude Longitude Heading Altitude Ground
Speed
24-Feb-18 11:51 43.566705 -116.219436 26 2880ft 0kts
24-Feb-18 11:52 43.566705 -116.219436 26 2880ft 0kts
24-Feb-18 11:53 43.566705 -116.219436 26 2880ft 0kts
24-Feb-18 11:54 43.566705 -116.219436 26 2880ft 0kts
24-Feb-18 11:55 43.566705 -116.219436 26 2880ft 0kts
24-Feb-18 11:56 43.566705 -116.219436 26 2880ft 0kts
24-Feb-18 11:57 43.566705 -116.219436 26 2880ft 0kts
24-Feb-18 11:58 43.566705 -116.219436 26 2880ft 0kts
24-Feb-18 11:59 43.566705 -116.219436 26 2880ft 0kts
24-Feb-18 12:00 43.566705 -116.219436 26 2880ft 0kts
24-Feb-18 12:05 43.567571 -116.218743 217 2880ft 0kts
24-Feb-18 12:06 43.567571 -116.218743 217 2880ft 0kts
24-Feb-18 12:07 43.567571 -116.218743 217 2880ft 0kts
24-Feb-18 12:08 43.567571 -116.218743 217 2880ft 0kts
24-Feb-18 12:09 43.567571 -116.218743 217 2880ft 0kts
24-Feb-18 12:10 43.567571 -116.218743 217 2880ft 0kts
24-Feb-18 12:11 43.567571 -116.218743 217 2880ft 0kts
24-Feb-18 12:12 43.567571 -116.218743 217 2880ft 0kts
24-Feb-18 12:13 43.567571 -116.218743 217 2880ft 0kts
24-Feb-18 12:14 43.567571 -116.218743 217 2880ft 0kts
24-Feb-18 12:15 43.567571 -116.218743 217 2880ft 0kts
24-Feb-18 12:16 43.567572 -116.218742 217 2880ft 0kts
24-Feb-18 12:17 43.568117 -116.218612 164 2880ft 0kts
24-Feb-18 12:18 43.567935 -116.218082 107 2880ft 0kts
24-Feb-18 12:19 43.567935 -116.218081 107 2880ft 0kts
24-Feb-18 12:20 43.567807 -116.217744 132 2880ft 9kts
24-Feb-18 12:21 43.565606 -116.217316 174 2880ft 0kts
24-Feb-18 12:22 43.565158 -116.218446 288 2880ft 14kts
24-Feb-18 12:23 43.567187 -116.224499 295 2880ft 15kts
24-Feb-18 12:24 43.568833 -116.229359 294 2880ft 19kts
24-Feb-18 12:25 43.570645 -116.236462 206 2880ft 9kts
24-Feb-18 12:26 43.565613 -116.223468 115 2880ft 138kts
24-Feb-18 12:27 43.543240 -116.173418 118 5155ft 174kts
24-Feb-18 12:28 43.518281 -116.098347 135 6716ft 252kts
24-Feb-18 12:29 43.457970 -116.107872 224 9433ft 257kts
24-Feb-18 12:30 43.404629 -116.181773 245 11370ft 300kts
24-Feb-18 12:31 43.423459 -116.291526 294 13834ft 317kts
24-Feb-18 12:32 43.464136 -116.401281 294 16149ft 327kts
24-Feb-18 12:33 43.505990 -116.513659 295 18214ft 337kts
24-Feb-18 12:34 43.549313 -116.630181 295 20092ft 347kts
24-Feb-18 12:35 43.591983 -116.745370 295 21755ft 355kts
24-Feb-18 12:36 43.637322 -116.868328 295 23338ft 364kts
24-Feb-18 12:37 43.683254 -116.993417 296 24878ft 369kts
24-Feb-18 12:38 43.728816 -117.120526 294 26267ft 374kts
24-Feb-18 12:39 43.770739 -117.253598 295 27446ft 382kts
24-Feb-18 12:40 43.813380 -117.389496 295 28516ft 389kts
24-Feb-18 12:41 43.855127 -117.528793 288 29482ft 397kts
24-Feb-18 12:42 43.851625 -117.678120 255 30303ft 421kts
24-Feb-18 12:43 43.803722 -117.827769 251 31118ft 430kts
24-Feb-18 12:44 43.754431 -117.979681 251 31944ft 433kts
24-Feb-18 12:45 43.705145 -118.130882 251 32862ft 432kts
24-Feb-18 12:46 43.655795 -118.281492 251 33692ft 431kts
24-Feb-18 12:47 43.606387 -118.431434 251 34463ft 430kts
24-Feb-18 12:48 43.556768 -118.581160 251 35180ft 429kts
24-Feb-18 12:49 43.508776 -118.725197 251 35816ft 429kts
24-Feb-18 12:50 43.459316 -118.872782 251 36066ft 426kts
24-Feb-18 12:51 43.409567 -119.020460 253 36066ft 428kts
24-Feb-18 12:52 43.359297 -119.168756 253 36069ft 429kts
24-Feb-18 12:53 43.308570 -119.316896 253 36067ft 430kts
24-Feb-18 12:54 43.258536 -119.464868 253 36068ft 429kts
24-Feb-18 12:55 43.207664 -119.612497 253 36065ft 429kts
24-Feb-18 12:56 43.157302 -119.757802 253 36062ft 430kts
24-Feb-18 12:57 43.106216 -119.904541 253 36135ft 430kts
24-Feb-18 12:58 43.054683 -120.051815 253 36185ft 431kts
24-Feb-18 12:59 43.003008 -120.198708 253 36187ft 429kts
24-Feb-18 13:00 42.951427 -120.344560 254 36133ft 426kts
24-Feb-18 13:01 42.900845 -120.486728 255 35338ft 412kts
24-Feb-18 13:02 42.852331 -120.622572 255 34543ft 403kts
24-Feb-18 13:03 42.803957 -120.757473 254 33751ft 402kts
24-Feb-18 13:04 42.755596 -120.891409 254 32867ft 389kts
24-Feb-18 13:05 42.709090 -121.019672 255 31142ft 376kts
24-Feb-18 13:06 42.663667 -121.144463 256 29387ft 364kts
24-Feb-18 13:07 42.619401 -121.265545 256 27636ft 353kts
24-Feb-18 13:08 42.576455 -121.382529 256 25882ft 342kts
24-Feb-18 13:09 42.534698 -121.495798 255 24152ft 331kts
24-Feb-18 13:10 42.494540 -121.604309 255 22466ft 319kts
24-Feb-18 13:11 42.455766 -121.708714 253 20807ft 309kts
24-Feb-18 13:12 42.418053 -121.809899 253 19186ft 299kts
24-Feb-18 13:13 42.381162 -121.908518 252 17588ft 290kts
24-Feb-18 13:14 42.345390 -122.003807 252 16027ft 280kts
24-Feb-18 13:15 42.310643 -122.096082 251 14505ft 271kts
24-Feb-18 13:16 42.277079 -122.184933 251 13042ft 261kts
24-Feb-18 13:17 42.244723 -122.270315 250 11673ft 251kts
24-Feb-18 13:18 42.210087 -122.350804 246 10431ft 242kts
24-Feb-18 13:19 42.176505 -122.426844 247 9291ft 232kts
24-Feb-18 13:20 42.148658 -122.502556 262 8119ft 222kts
24-Feb-18 13:21 42.149394 -122.582274 287 7043ft 210kts
24-Feb-18 13:22 42.177757 -122.649761 311 5894ft 212kts
24-Feb-18 13:23 42.214183 -122.704839 310 5427ft 187kts
24-Feb-18 13:24 42.242772 -122.761031 301 4743ft 170kts
24-Feb-18 13:25 42.266362 -122.803870 315 3530ft 133kts
24-Feb-18 13:26 42.297219 -122.832250 332 2821ft 136kts
24-Feb-18 13:27 42.332228 -122.850767 336 2092ft 137kts
24-Feb-18 13:28 42.367522 -122.869333 334 1348ft 132kts
24-Feb-18 13:29 42.375942 -122.875257 196 1342ft 7kts
24-Feb-18 13:30 42.371018 -122.872800 157 1342ft 21kts
24-Feb-18 13:31 42.369390 -122.873688 248 1342ft 0kts
24-Feb-18 13:32 42.369390 -122.873688 248 1342ft 0kts
24-Feb-18 13:33 42.369390 -122.873688 248 1342ft 0kts
24-Feb-18 13:34 42.369390 -122.873688 248 1342ft 0kts
24-Feb-18 13:35 42.369390 -122.873688 248 1342ft 0kts
24-Feb-18 13:36 42.369390 -122.873688 248 1342ft 0kts
24-Feb-18 13:37 42.369390 -122.873688 248 1342ft 0kts
24-Feb-18 13:38 42.369390 -122.873688 248 1342ft 0kts
24-Feb-18 13:39 42.369390 -122.873688 248 1342ft 0kts
24-Feb-18 13:40 42.369390 -122.873688 248 1342ft 0kts
24-Feb-18 13:41 42.369390 -122.873688 248 1342ft 0kts
24-Feb-18 13:42 42.369390 -122.873688 248 1342ft 0kts
24-Feb-18 13:43 42.369390 -122.873688 248 1342ft 0kts

Navigation Log

Ident Type
Flight plan parsing failed, navigation log unavailable